Home > Products > Valid Products > MTR

000
SAUS43 KDLH 212357
MTRGNA
METAR KGNA 212356Z AUTO 33003KT 10/08 A3011 RMK AO1 SLP199 T01000083
10111 20100 53012





000
SAUS43 KDLH 212257
MTRGNA
METAR KGNA 212256Z AUTO 24003KT 11/08 A3010 RMK AO1 SLP194 T01060083





000
SAUS43 KDLH 212157
MTRGNA
METAR KGNA 212156Z AUTO 21011KT 11/08 A3008 RMK AO1 SLP189 T01110083





000
SAUS43 KDLH 212057
MTRGNA
METAR KGNA 212056Z AUTO 21010KT 11/08 A3008 RMK AO1 SLP187 T01060078
57002





000
SAUS43 KDLH 211957
MTRGNA
METAR KGNA 211956Z AUTO 22013KT 11/07 A3008 RMK AO1 SLP187 T01060067





000
SAUS43 KDLH 211857
MTRGNA
METAR KGNA 211856Z AUTO 21011KT 11/06 A3008 RMK AO1 SLP186 T01060061





000
SAUS43 KDLH 211757
MTRGNA
METAR KGNA 211756Z AUTO 19011KT 11/06 A3008 RMK AO1 SLP188 T01060061
10144 20083 52007





000
SAUS43 KDLH 211657
MTRGNA
METAR KGNA 211656Z AUTO VRB06KT 14/04 A3007 RMK AO1 SLP183 T01390044





000
SAUS43 KDLH 211557
MTRGNA
METAR KGNA 211556Z AUTO VRB06KT 12/03 A3007 RMK AO1 SLP184 T01170028





000
SAUS43 KDLH 211457
MTRGNA
METAR KGNA 211456Z AUTO 07004KT 09/04 A3006 RMK AO1 SLP181 T00940039
51041





000
SAUS43 KDLH 211357
MTRGNA
METAR KGNA 211356Z AUTO VRB06KT 09/04 A3003 RMK AO1 SLP169 T00890039





000
SAUS43 KDLH 211257
MTRGNA
METAR KGNA 211256Z AUTO 00000KT 10/06 A2997 RMK AO1 SLP151 T01000056





000
SAUS43 KDLH 211157
MTRGNA
METAR KGNA 211156Z AUTO VRB03KT 10/06 A2994 RMK AO1 SLP139 70021
T01000056 10122 20089 53037





000
SAUS43 KDLH 211057
MTRGNA
METAR KGNA 211056Z AUTO 07003KT 11/06 A2990 RMK AO1 SLP124 T01060056





000
SAUS43 KDLH 210957
MTRGNA
METAR KGNA 210956Z AUTO 03007KT 360V070 11/07 A2986 RMK AO1 SLP112
T01110072





000
SAUS43 KDLH 210857
MTRGNA
METAR KGNA 210856Z AUTO 00000KT 11/09 A2983 RMK AO1 SLP098 T01060094
53023





000
SAUS43 KDLH 210757
MTRGNA
METAR KGNA 210756Z AUTO 08006KT 12/08 A2979 RMK AO1 SLP085 T01170083





000
SAUS43 KDLH 210657
MTRGNA
METAR KGNA 210656Z AUTO VRB04KT 12/09 A2977 RMK AO1 SLP080 T01170089





000
SAUS43 KDLH 210557
MTRGNA
METAR KGNA 210556Z AUTO VRB05KT 12/11 A2976 RMK AO1 SLP073 P0005
60021 T01170106 10150 20111 402170111 53019





000
SAUS43 KDLH 210457
MTRGNA
METAR KGNA 210456Z AUTO 06007KT 12/11 A2974 RMK AO1 SLP067 P0016
T01170111





000
SAUS43 KDLH 210357
MTRGNA
METAR KGNA 210356Z AUTO 06008KT 13/12 A2972 RMK AO1 SLP061 T01280117





000
SAUS43 KDLH 210257
MTRGNA
METAR KGNA 210256Z AUTO 06003KT 13/11 A2970 RMK AO1 SLP053 T01330111
50005





000
SAUS43 KDLH 210157
MTRGNA
METAR KGNA 210156Z AUTO 00000KT 13/12 A2970 RMK AO1 SLP056 T01330117





000
SAUS43 KDLH 210057
MTRGNA
METAR KGNA 210056Z AUTO 08005KT 14/11 A2969 RMK AO1 SLP053 T01440111





000
SAUS43 KDLH 202357
MTRGNA
METAR KGNA 202356Z AUTO 00000KT 13/11 A2968 RMK AO1 SLP051 T01330106
10211 20128 51013





000
SAUS43 KDLH 202257
MTRGNA
METAR KGNA 202256Z AUTO 00000KT 16/11 A2967 RMK AO1 SLP047 T01560111





000
SAUS43 KDLH 202157
MTRGNA
METAR KGNA 202156Z AUTO 00000KT 15/11 A2966 RMK AO1 SLP043 T01500111





000
SAUS43 KDLH 202057
MTRGNA
METAR KGNA 202056Z AUTO VRB03KT 20/11 A2964 RMK AO1 SLP034 T02000111
58001





000
SAUS43 KDLH 201957
MTRGNA
METAR KGNA 201956Z AUTO 00000KT 21/11 A2965 RMK AO1 SLP039 T02060106





000
SAUS43 KDLH 201857
MTRGNA
METAR KGNA 201856Z AUTO VRB05KT 19/12 A2965 RMK AO1 SLP038 T01890117





000
SAUS43 KDLH 201757
MTRGNA
METAR KGNA 201756Z AUTO VRB06KT 22/13 A2965 RMK AO1 SLP035 T02170128
10217 20117 51017





000
SAUS43 KDLH 201657
MTRGNA
METAR KGNA 201656Z AUTO 20/13 A2964 RMK AO1 SLP033 T02000128





000
SAUS43 KDLH 201557
MTRGNA
METAR KGNA 201556Z AUTO VRB05KT 17/13 A2962 RMK AO1 SLP029 T01720133





000
SAUS43 KDLH 201457
MTRGNA
METAR KGNA 201456Z AUTO VRB05KT 19/15 A2959 RMK AO1 SLP019 T01890150
53017





000
SAUS43 KDLH 201357
MTRGNA
METAR KGNA 201356Z AUTO 00000KT 15/14 A2957 RMK AO1 SLP013 T01500144





000
SAUS43 KDLH 201257
MTRGNA
METAR KGNA 201256Z AUTO 25004KT 12/12 A2955 RMK AO1 SLP006 T01220117





000
SAUS43 KDLH 201157
MTRGNA
METAR KGNA 201156Z AUTO 24004KT 12/12 A2954 RMK AO1 SLP005 60001
70103 T01220122 10144 20117 53008





000
SAUS43 KDLH 201057
MTRGNA
METAR KGNA 201056Z AUTO VRB03KT 13/12 A2953 RMK AO1 SLP000 T01280122





000
SAUS43 KDLH 200957
MTRGNA
METAR KGNA 200956Z AUTO 21006KT 12/12 A2953 RMK AO1 SLP999 T01170117





000
SAUS43 KDLH 200857
MTRGNA
METAR KGNA 200856Z AUTO VRB05KT 14/13 A2952 RMK AO1 SLP996 60001
T01390133 58024





000
SAUS43 KDLH 200757
MTRGNA
METAR KGNA 200756Z AUTO VRB03KT 13/12 A2957 RMK AO1 SLP012 T01280122





000
SAUS43 KDLH 200657
MTRGNA
METAR KGNA 200656Z AUTO 22003KT 12/12 A2960 RMK AO1 SLP025 P0001
T01220117





000
SAUS43 KDLH 200557
MTRGNA
METAR KGNA 200556Z AUTO 00000KT 12/12 A2959 RMK AO1 SLP020 T01220117
10128 20111 401390089 55005





000
SAUS43 KDLH 200457
MTRGNA
METAR KGNA 200456Z AUTO 00000KT 12/11 A2959 RMK AO1 SLP019 T01170111





000
SAUS43 KDLH 200357
MTRGNA
METAR KGNA 200356Z AUTO 00000KT 12/12 A2960 RMK AO1 SLP025 T01220117





000
SAUS43 KDLH 200257
MTRGNA
METAR KGNA 200256Z AUTO 27003KT 12/11 A2961 RMK AO1 SLP026 T01170106
58004





000
SAUS43 KDLH 200157
MTRGNA
METAR KGNA 200156Z AUTO 00000KT 12/11 A2961 RMK AO1 SLP028 T01170111





000
SAUS43 KDLH 200057
MTRGNA
METAR KGNA 200056Z AUTO 00000KT 12/11 A2962 RMK AO1 SLP031 T01170111





000
SAUS43 KDLH 192357
MTRGNA
METAR KGNA 192356Z AUTO 00000KT 11/11 A2962 RMK AO1 SLP030 60099
T01110106 10133 20111 58005





000
SAUS43 KDLH 192257
MTRGNA
METAR KGNA 192256Z AUTO 00000KT 12/11 A2963 RMK AO1 SLP033 T01170111





000
SAUS43 KDLH 192157
MTRGNA
METAR KGNA 192156Z AUTO 21004KT 12/11 A2964 RMK AO1 SLP036 P0095
T01170111





000
SAUS43 KDLH 192057
MTRGNA
METAR KGNA 192056Z AUTO 00000KT 12/11 A2963 RMK AO1 SLP035 60004
T01170106 56034





000
SAUS43 KDLH 191957
MTRGNA
METAR KGNA 191956Z AUTO 00000KT 12/11 A2967 RMK AO1 SLP047 P0001
T01220111





000
SAUS43 KDLH 191857
MTRGNA
METAR KGNA 191856Z AUTO 00000KT 13/12 A2969 RMK AO1 SLP055 P0003
T01280117





000
SAUS43 KDLH 191757
MTRGNA
METAR KGNA 191756Z AUTO VRB03KT 13/12 A2974 RMK AO1 SLP070 P0003
60003 T01330117 10139 20106 55028





000
SAUS43 KDLH 191657
MTRGNA
METAR KGNA 191656Z AUTO 24004KT 13/11 A2973 RMK AO1 SLP068 T01330106





000
SAUS43 KDLH 191557
MTRGNA
METAR KGNA 191556Z AUTO 24004KT 12/10 A2978 RMK AO1 SLP086 T01220100





000
SAUS43 KDLH 191457
MTRGNA
METAR KGNA 191456Z AUTO VRB03KT 12/10 A2982 RMK AO1 SLP100 T01220100
56030





000
SAUS43 KDLH 191357
MTRGNA
METAR KGNA 191356Z AUTO 25004KT 12/10 A2984 RMK AO1 SLP108 T01220100





000
SAUS43 KDLH 191258
MTRGNA
METAR KGNA 191256Z AUTO 00000KT 12/10 A2987 RMK AO1 PRESFR SLP115
T01170100





000
SAUS43 KDLH 191158
MTRGNA
METAR KGNA 191156Z AUTO 00000KT 11/09 A2991 RMK AO1 SLP132 T01060089
10106 20089 56016





000
SAUS43 KDLH 191057
MTRGNA
METAR KGNA 191056Z AUTO 00000KT 10/08 A2993 RMK AO1 SLP137 T01000083





000
SAUS43 KDLH 190957
MTRGNA
METAR KGNA 190956Z AUTO 00000KT 10/08 A2994 RMK AO1 SLP142 T01000078





000
SAUS43 KDLH 190858
MTRGNA
METAR KGNA 190856Z AUTO 06003KT 10/07 A2996 RMK AO1 SLP148 T01000072
56019





000
SAUS43 KDLH 190758
MTRGNA
METAR KGNA 190756Z AUTO 05003KT 09/07 A2998 RMK AO1 SLP154 T00940067





000
SAUS43 KDLH 190657
MTRGNA
METAR KGNA 190656Z AUTO 06003KT 09/07 A3000 RMK AO1 SLP162 T00940067





000
SAUS43 KDLH 190557
MTRGNA
METAR KGNA 190556Z AUTO 05003KT 09/06 A3002 RMK AO1 SLP168 T00940061
10094 20078 400940067 56020





000
SAUS43 KDLH 190457
MTRGNA
METAR KGNA 190456Z AUTO 05005KT 09/06 A3002 RMK AO1 SLP170 T00890056





000
SAUS43 KDLH 190357
MTRGNA
METAR KGNA 190356Z AUTO 04005KT 08/05 A3005 RMK AO1 SLP179 T00830050





000
SAUS43 KDLH 190257
MTRGNA
METAR KGNA 190256Z AUTO 04004KT 08/04 A3008 RMK AO1 SLP190 T00830044
58006





000
SAUS43 KDLH 190157
MTRGNA
METAR KGNA 190156Z AUTO 08007KT 08/05 A3009 RMK AO1 SLP193 T00830050





000
SAUS43 KDLH 190057
MTRGNA
METAR KGNA 190056Z AUTO 08007KT 08/04 A3010 RMK AO1 SLP196 T00830039





    US Dept of Commerce
    National Oceanic and Atmospheric Administration
    National Weather Service
    1325 East West Highway
    Silver Spring, MD 20910
    Page Author: NWS Internet Services Team
Disclaimer
Information Quality
Credits
Glossary
Privacy Policy
Freedom of Information Act (FOIA)
About Us
Career Opportunities